KORL/ORL METAR and TAF weather

Enter ICAO airport designator
Station Type Date Time Source
KORL METAR 2020/10/29 16:53 UTC NOAA

KORL 291653Z 19016G20KT 10SM SCT035 BKN046 31/23 A2992 RMK AO2 SLP133 T03110228


Station Type Date Time Source
KORL Decoded METAR 2020/10/29 16:53 UTC NOAA

ORLANDO EXECUTIVE AIRPORT, FL, United States (KORL) 28-33N 081-20W 37M
Oct 29, 2020 - 12:53 PM EDT / 2020.10.29 1653 UTC
Wind: from the S (190 degrees) at 18 MPH (16 KT) gusting to 23 MPH (20 KT):0
Visibility: 10 mile(s):0
Sky conditions: mostly cloudy
Temperature: 88.0 F (31.1 C)
Heat index: 95.5 F (35.3 C):1
Dew Point: 73.0 F (22.8 C)
Relative Humidity: 61%
Pressure (altimeter): 29.92 in. Hg (1013 hPa)
ob: KORL 291653Z 19016G20KT 10SM SCT035 BKN046 31/23 A2992 RMK AO2 SLP133 T03110228
cycle: 17

Station Type Date Time Source
KORL TAF UTC NOAA

Error!

Example: see airport list